Time;durP1;ratioP1;P1;durP2;ratioP2;P2;SDS_P1;SDS_P2;PMS_P1;PMS_P2;Temp;Humidity;BMP_temperature;BMP_pressure;BME280_temperature;BME280_humidity;BME280_pressure;Samples;Min_cycle;Max_cycle;Signal;HPM_P1;HPM_P2
2021/06/07 00:02:08;;;;;;;3.30;2.43;;;;;;;14.46;57.74;101596.25;5006093;28;20268;-68
2021/06/07 00:04:35;;;;;;;3.17;2.80;;;;;;;14.46;57.86;101598.94;5008300;28;20202;-68
2021/06/07 00:07:06;;;;;;;4.93;2.57;;;;;;;14.05;58.42;101533.38;5008697;28;20233;-68
2021/06/07 00:09:34;;;;;;;3.47;2.80;;;;;;;14.35;58.23;101596.06;5008551;28;20214;-68
2021/06/07 00:12:05;;;;;;;3.10;2.33;;;;;;;14.32;57.99;101593.59;5007828;28;20217;-69
2021/06/07 00:14:34;;;;;;;2.93;2.23;;;;;;;14.22;58.86;101589.81;5006650;28;20214;-69
2021/06/07 00:17:04;;;;;;;6.67;2.73;;;;;;;14.17;59.61;101592.84;5008852;28;20551;-69
2021/06/07 00:19:35;;;;;;;3.43;2.70;;;;;;;14.09;59.39;101588.94;4999301;28;20210;-69
2021/06/07 00:22:05;;;;;;;3.03;2.43;;;;;;;14.14;58.76;101593.03;5006529;28;20208;-69
2021/06/07 00:24:34;;;;;;;3.33;2.40;;;;;;;14.09;59.13;101602.44;5005378;28;20224;-69
2021/06/07 00:27:05;;;;;;;3.60;2.50;;;;;;;14.02;59.02;101595.72;5004651;28;20324;-69
2021/06/07 00:29:33;;;;;;;4.03;2.70;;;;;;;13.64;58.92;101539.78;5002020;28;20193;-70
2021/06/07 00:32:01;;;;;;;3.07;2.30;;;;;;;13.99;59.32;101594.94;5008313;28;20282;-70
2021/06/07 00:34:29;;;;;;;10.13;3.00;;;;;;;13.98;58.82;101595.91;5003890;28;20765;-69
2021/06/07 00:36:57;;;;;;;4.50;2.40;;;;;;;13.98;59.36;101592.34;5009434;28;20208;-70
2021/06/07 00:39:26;;;;;;;3.37;2.50;;;;;;;13.89;59.09;101585.75;5018834;28;20727;-70
2021/06/07 00:41:54;;;;;;;3.00;2.60;;;;;;;13.95;58.54;101592.56;5007061;28;20234;-69
2021/06/07 00:44:23;;;;;;;3.57;2.20;;;;;;;13.91;59.18;101591.03;5006884;28;20205;-69
2021/06/07 00:46:51;;;;;;;2.53;2.33;;;;;;;13.89;59.13;101583.06;5007893;28;20631;-70
2021/06/07 00:49:19;;;;;;;2.77;2.47;;;;;;;13.85;58.80;101575.28;5006857;28;20209;-70
2021/06/07 00:51:47;;;;;;;2.50;2.30;;;;;;;13.84;59.18;101579.81;5007687;28;20200;-68
2021/06/07 00:54:16;;;;;;;3.03;2.40;;;;;;;13.77;59.97;101581.16;5007425;28;20211;-68
2021/06/07 00:56:45;;;;;;;2.43;2.10;;;;;;;13.71;60.30;101576.19;4998651;28;20203;-68
2021/06/07 00:59:13;;;;;;;3.23;2.60;;;;;;;13.69;59.48;101567.31;5006816;28;20199;-68
2021/06/07 01:01:41;;;;;;;3.43;2.60;;;;;;;13.65;59.88;101573.91;5007171;28;20200;-68
2021/06/07 01:04:09;;;;;;;3.57;2.77;;;;;;;13.65;59.73;101577.47;5010122;28;20202;-68
2021/06/07 01:06:37;;;;;;;3.13;2.43;;;;;;;13.63;59.83;101583.94;5023480;28;20217;-69
2021/06/07 01:09:05;;;;;;;3.40;2.50;;;;;;;13.50;59.59;101565.03;5005148;28;20584;-69
2021/06/07 01:11:34;;;;;;;6.20;2.70;;;;;;;13.57;59.24;101579.81;5012967;28;20257;-70
2021/06/07 01:14:05;;;;;;;3.47;2.57;;;;;;;13.56;59.10;101579.94;5012537;28;20288;-69
2021/06/07 01:16:33;;;;;;;2.93;2.30;;;;;;;13.54;59.53;101587.28;5010556;28;20210;-70
2021/06/07 01:19:02;;;;;;;6.77;2.60;;;;;;;13.50;59.81;101581.22;5016234;28;20214;-69
2021/06/07 01:21:29;;;;;;;3.40;2.67;;;;;;;13.46;59.58;101584.19;5011738;28;20853;-69
2021/06/07 01:23:58;;;;;;;3.50;2.67;;;;;;;13.45;59.42;101582.47;5011871;28;20568;-69
2021/06/07 01:26:27;;;;;;;4.13;2.87;;;;;;;13.42;59.32;101583.53;5012253;28;20234;-69
2021/06/07 01:28:55;;;;;;;4.73;2.63;;;;;;;13.39;60.11;101582.88;5011390;28;20195;-69
2021/06/07 01:31:23;;;;;;;3.70;2.50;;;;;;;13.38;59.82;101586.53;5019522;28;20541;-70
2021/06/07 01:33:56;;;;;;;2.70;2.47;;;;;;;13.36;59.67;101584.81;5024185;28;20225;-68
2021/06/07 01:36:24;;;;;;;3.10;2.30;;;;;;;13.20;59.61;101559.81;5011467;28;20196;-68
2021/06/07 01:38:52;;;;;;;4.30;2.87;;;;;;;13.30;59.67;101585.22;5019938;28;20206;-68
2021/06/07 01:41:23;;;;;;;3.43;2.90;;;;;;;13.26;59.94;101572.03;5005198;28;20326;-69
2021/06/07 01:43:50;;;;;;;2.87;2.63;;;;;;;13.03;60.17;101551.91;5011329;28;20685;-69
2021/06/07 01:46:18;;;;;;;2.70;2.50;;;;;;;13.15;60.86;101572.69;5010848;28;20198;-69
2021/06/07 01:48:46;;;;;;;5.27;3.07;;;;;;;13.14;60.70;101581.75;4999698;28;20809;-69
2021/06/07 01:51:14;;;;;;;4.57;2.50;;;;;;;13.11;60.42;101576.53;5011435;28;20689;-68
2021/06/07 01:53:43;;;;;;;4.30;2.47;;;;;;;13.12;60.65;101575.59;5012355;28;20222;-67
2021/06/07 01:56:11;;;;;;;5.73;2.77;;;;;;;13.11;60.21;101579.25;5010703;28;20280;-67
2021/06/07 01:58:41;;;;;;;3.60;2.50;;;;;;;12.89;59.86;101550.13;5012266;28;20212;-67
2021/06/07 02:01:10;;;;;;;4.00;2.73;;;;;;;13.13;59.74;101588.09;5009327;28;20879;-66
2021/06/07 02:03:38;;;;;;;4.13;2.70;;;;;;;13.14;59.87;101586.28;5010720;28;20572;-67
2021/06/07 02:06:09;;;;;;;3.87;2.63;;;;;;;13.13;59.43;101582.72;5011971;28;20205;-67
2021/06/07 02:08:38;;;;;;;3.17;2.70;;;;;;;13.13;59.75;101590.78;5010643;28;20223;-67
2021/06/07 02:11:08;;;;;;;4.00;2.77;;;;;;;12.85;60.36;101550.41;5029691;28;20679;-67
2021/06/07 02:13:37;;;;;;;8.23;2.40;;;;;;;13.00;60.96;101576.38;5019433;28;20201;-67
2021/06/07 02:16:08;;;;;;;4.10;2.90;;;;;;;13.02;60.45;101590.63;5020120;28;20212;-68
2021/06/07 02:18:37;;;;;;;4.00;2.73;;;;;;;13.00;60.57;101587.19;5007315;28;20203;-69
2021/06/07 02:21:06;;;;;;;4.40;3.13;;;;;;;12.99;60.80;101580.06;5009386;28;20293;-69
2021/06/07 02:23:34;;;;;;;4.30;3.00;;;;;;;13.06;60.15;101581.38;5011344;28;20213;-69
2021/06/07 02:26:02;;;;;;;3.37;2.70;;;;;;;13.10;60.28;101580.22;5010076;28;20213;-69
2021/06/07 02:28:29;;;;;;;3.23;2.47;;;;;;;13.12;60.54;101580.97;5010853;28;20230;-69
2021/06/07 02:30:58;;;;;;;4.07;2.90;;;;;;;13.22;61.00;101584.88;5005141;28;20566;-69
2021/06/07 02:33:27;;;;;;;6.33;2.97;;;;;;;13.48;61.91;101580.44;5010644;28;20735;-69
2021/06/07 02:35:54;;;;;;;5.97;2.80;;;;;;;13.95;62.67;101587.16;5012165;28;20868;-69
2021/06/07 02:38:22;;;;;;;3.97;2.57;;;;;;;14.42;62.70;101581.19;5009275;28;20691;-69
2021/06/07 02:40:51;;;;;;;5.33;2.87;;;;;;;14.90;62.23;101575.97;5004323;28;20222;-69
2021/06/07 02:43:19;;;;;;;3.80;3.17;;;;;;;15.36;61.68;101578.88;5017249;28;20553;-67
2021/06/07 02:45:47;;;;;;;3.67;3.10;;;;;;;15.87;60.42;101566.94;5012274;28;20199;-68
2021/06/07 02:48:16;;;;;;;3.67;2.80;;;;;;;16.48;59.52;101573.00;5014060;28;20717;-68
2021/06/07 02:50:46;;;;;;;3.77;2.60;;;;;;;17.06;58.21;101580.91;5007973;28;20203;-68
2021/06/07 02:53:16;;;;;;;6.63;2.97;;;;;;;17.63;57.21;101582.53;5005507;28;20214;-69
2021/06/07 02:55:46;;;;;;;5.50;2.90;;;;;;;18.20;55.39;101578.59;5009723;28;20215;-69
2021/06/07 02:58:15;;;;;;;2.97;2.63;;;;;;;18.64;54.18;101575.72;5014792;28;20251;-68
2021/06/07 03:00:46;;;;;;;4.83;2.50;;;;;;;18.76;52.64;101580.94;5010901;28;20261;-69
2021/06/07 03:03:14;;;;;;;4.03;2.83;;;;;;;18.64;53.06;101582.00;5010341;28;20662;-67
2021/06/07 03:05:43;;;;;;;3.57;2.60;;;;;;;18.58;53.31;101582.53;5010165;28;20200;-67
2021/06/07 03:08:15;;;;;;;4.13;2.80;;;;;;;18.61;53.65;101587.69;5019865;28;20672;-68
2021/06/07 03:10:44;;;;;;;9.03;3.00;;;;;;;18.71;53.08;101577.78;5007372;28;20591;-68
2021/06/07 03:13:12;;;;;;;5.80;3.23;;;;;;;18.75;52.77;101578.38;5004381;28;20208;-68
2021/06/07 03:15:40;;;;;;;3.10;2.60;;;;;;;18.64;53.12;101576.56;5008066;28;20282;-68
2021/06/07 03:18:08;;;;;;;4.03;2.83;;;;;;;18.42;53.32;101572.16;5010538;28;20208;-67
2021/06/07 03:20:37;;;;;;;6.57;3.00;;;;;;;18.41;52.84;101572.28;5008675;28;20202;-67
2021/06/07 03:23:07;;;;;;;3.20;2.90;;;;;;;18.29;53.37;101580.50;5009779;28;20208;-67
2021/06/07 03:25:40;;;;;;;3.33;2.70;;;;;;;18.09;53.58;101575.94;5010212;28;20191;-68
2021/06/07 03:28:08;;;;;;;4.57;2.97;;;;;;;17.86;55.44;101571.59;5019489;28;20273;-67
2021/06/07 03:30:37;;;;;;;3.67;3.07;;;;;;;17.76;56.01;101573.38;5006888;28;20199;-67
2021/06/07 03:33:06;;;;;;;3.87;3.20;;;;;;;17.81;55.57;101577.44;5009115;28;20195;-67
2021/06/07 03:35:36;;;;;;;6.43;3.30;;;;;;;17.73;55.75;101557.31;5008381;28;20565;-67
2021/06/07 03:38:04;;;;;;;3.73;3.00;;;;;;;17.78;55.98;101571.41;5010090;28;20590;-67
2021/06/07 03:40:35;;;;;;;3.87;2.90;;;;;;;17.78;55.94;101580.41;5009680;28;20211;-67
2021/06/07 03:43:04;;;;;;;4.13;3.27;;;;;;;17.61;56.64;101576.34;5007828;28;20579;-66
2021/06/07 03:45:34;;;;;;;5.13;3.27;;;;;;;17.41;56.96;101576.28;5010144;28;20222;-67
2021/06/07 03:48:02;;;;;;;4.40;3.27;;;;;;;17.23;58.12;101575.97;5006716;28;20218;-67
2021/06/07 03:50:31;;;;;;;8.70;3.27;;;;;;;17.15;58.15;101582.03;4995780;28;20211;-67
2021/06/07 03:52:59;;;;;;;5.17;3.63;;;;;;;17.12;58.41;101576.84;4995424;28;20211;-67
2021/06/07 03:55:28;;;;;;;5.43;3.10;;;;;;;17.02;59.31;101582.16;5007551;28;20279;-67
2021/06/07 03:57:57;;;;;;;4.43;3.10;;;;;;;17.02;59.55;101575.88;5006330;28;20872;-67
2021/06/07 04:00:28;;;;;;;4.53;3.30;;;;;;;16.93;59.32;101572.06;5003328;28;20207;-66
2021/06/07 04:02:57;;;;;;;4.40;3.40;;;;;;;16.87;59.54;101580.72;5006856;28;20237;-67
2021/06/07 04:05:26;;;;;;;3.90;3.30;;;;;;;16.81;60.15;101578.47;5008663;28;20199;-66
2021/06/07 04:07:55;;;;;;;4.33;3.40;;;;;;;16.87;60.60;101575.28;5008503;28;20983;-66
2021/06/07 04:10:28;;;;;;;4.87;3.03;;;;;;;16.85;61.30;101582.69;5008090;28;20270;-67
2021/06/07 04:12:56;;;;;;;4.47;3.30;;;;;;;16.84;61.57;101578.25;4996321;28;20206;-68
2021/06/07 04:15:28;;;;;;;6.10;3.50;;;;;;;16.83;61.42;101581.06;5008685;28;20207;-68
2021/06/07 04:17:57;;;;;;;6.10;4.17;;;;;;;16.84;61.55;101582.81;5004835;28;20630;-69
2021/06/07 04:20:28;;;;;;;5.67;3.50;;;;;;;16.82;62.25;101572.06;5009708;28;20279;-69
2021/06/07 04:22:56;;;;;;;5.10;3.33;;;;;;;16.88;62.18;101582.44;5006662;28;20249;-69
2021/06/07 04:25:25;;;;;;;6.67;3.37;;;;;;;16.89;62.22;101576.03;5009676;28;20199;-66
2021/06/07 04:27:54;;;;;;;6.57;4.00;;;;;;;16.96;63.11;101579.97;5005752;28;20243;-69
2021/06/07 04:30:23;;;;;;;7.30;4.63;;;;;;;17.00;63.20;101573.28;5003460;28;20403;-68
2021/06/07 04:32:54;;;;;;;6.37;3.70;;;;;;;16.95;63.47;101567.38;5001070;28;20195;-67
2021/06/07 04:35:22;;;;;;;6.87;4.27;;;;;;;16.98;64.26;101572.56;5005624;28;20198;-67
2021/06/07 04:37:52;;;;;;;7.67;4.70;;;;;;;17.04;64.75;101582.03;5006131;28;20204;-68
2021/06/07 04:40:23;;;;;;;7.83;4.53;;;;;;;17.06;64.47;101580.91;5004493;28;20194;-69
2021/06/07 04:42:52;;;;;;;6.10;4.77;;;;;;;17.04;65.21;101580.19;5004774;28;20207;-69
2021/06/07 04:45:21;;;;;;;7.30;5.03;;;;;;;17.13;66.14;101592.13;5000010;28;20199;-67
2021/06/07 04:47:50;;;;;;;7.23;5.03;;;;;;;17.16;65.66;101588.34;5001411;28;20207;-67
2021/06/07 04:50:21;;;;;;;6.73;4.80;;;;;;;17.30;66.44;101583.47;5004552;28;20561;-67
2021/06/07 04:52:59;;;;;;;7.17;4.70;;;;;;;17.42;66.07;101576.16;5003950;28;20211;-67
2021/06/07 04:55:32;;;;;;;6.97;5.30;;;;;;;17.61;67.31;101578.22;5005015;28;20187;-68
2021/06/07 04:58:02;;;;;;;6.10;4.60;;;;;;;17.90;67.30;101589.38;5005107;28;20326;-68
2021/06/07 05:00:42;;;;;;;6.83;5.10;;;;;;;18.08;67.61;101566.06;5003249;28;20250;-66
2021/06/07 05:03:16;;;;;;;7.50;5.20;;;;;;;18.42;66.35;101587.59;5000405;28;20195;-70
2021/06/07 05:05:46;;;;;;;6.73;4.77;;;;;;;18.52;64.90;101580.34;5001011;28;20317;-67
2021/06/07 05:08:14;;;;;;;7.63;4.97;;;;;;;18.56;65.15;101576.38;5004784;28;20227;-66
2021/06/07 05:10:42;;;;;;;6.97;4.83;;;;;;;18.89;65.68;101589.72;5000330;28;20266;-70
2021/06/07 05:13:10;;;;;;;7.03;5.33;;;;;;;19.10;65.78;101588.81;5002029;28;20191;-67
2021/06/07 05:15:38;;;;;;;9.70;5.17;;;;;;;19.34;66.04;101585.72;5002168;28;20666;-69
2021/06/07 05:18:06;;;;;;;8.83;5.40;;;;;;;19.39;64.79;101584.31;5003349;28;20200;-69
2021/06/07 05:20:34;;;;;;;10.73;5.03;;;;;;;19.73;64.13;101592.13;5004846;28;20311;-68
2021/06/07 05:23:04;;;;;;;5.60;4.90;;;;;;;20.05;63.41;101580.94;5003191;28;20208;-66
2021/06/07 05:25:34;;;;;;;6.87;4.83;;;;;;;20.25;62.45;101577.19;5000870;28;20208;-70
2021/06/07 05:28:05;;;;;;;5.70;4.73;;;;;;;20.71;62.23;101590.00;5002524;28;20688;-70
2021/06/07 05:30:33;;;;;;;6.67;4.73;;;;;;;21.09;61.04;101591.72;5003240;28;20227;-70
2021/06/07 05:33:01;;;;;;;7.57;4.47;;;;;;;21.44;59.85;101586.53;5003148;28;20231;-68
2021/06/07 05:35:32;;;;;;;6.10;4.53;;;;;;;21.80;59.66;101588.28;5006040;28;20335;-67
2021/06/07 05:38:00;;;;;;;7.73;4.10;;;;;;;22.16;57.97;101582.81;5003275;28;20207;-68
2021/06/07 05:40:30;;;;;;;7.07;4.00;;;;;;;22.30;56.04;101554.84;5002146;28;20286;-68
2021/06/07 05:42:59;;;;;;;8.07;4.30;;;;;;;22.63;55.30;101584.16;4992090;28;20199;-70
2021/06/07 05:45:28;;;;;;;5.20;4.23;;;;;;;22.81;55.21;101584.16;5003070;28;20714;-68
2021/06/07 05:47:57;;;;;;;6.53;4.60;;;;;;;23.11;55.17;101580.00;5005780;28;20223;-70
2021/06/07 05:50:27;;;;;;;5.60;4.23;;;;;;;23.47;53.17;101580.63;5007018;28;20253;-69
2021/06/07 05:52:54;;;;;;;8.37;4.13;;;;;;;23.84;51.59;101585.69;5011125;28;20792;-69
2021/06/07 05:55:25;;;;;;;4.70;4.00;;;;;;;24.19;52.11;101580.94;5007829;28;20273;-69
2021/06/07 05:57:56;;;;;;;6.57;4.53;;;;;;;24.54;50.84;101578.88;5008968;28;20214;-69
2021/06/07 06:00:26;;;;;;;8.90;4.20;;;;;;;24.94;50.18;101580.63;5004188;28;21516;-69
2021/06/07 06:02:55;;;;;;;6.27;4.43;;;;;;;25.28;49.51;101585.84;5009854;28;20202;-70
2021/06/07 06:05:23;;;;;;;6.70;4.82;;;;;;;25.38;48.40;101584.59;5009006;28;20539;-70
2021/06/07 06:07:54;;;;;;;6.33;4.67;;;;;;;25.53;49.89;101590.19;5014695;28;20195;-69
2021/06/07 06:10:23;;;;;;;7.53;5.35;;;;;;;25.73;49.17;101592.53;5006845;28;20251;-69
2021/06/07 06:12:51;;;;;;;11.48;4.60;;;;;;;25.67;48.34;101572.91;5022307;28;20518;-69
2021/06/07 06:15:22;;;;;;;9.27;5.53;;;;;;;25.92;48.39;101592.88;5007692;28;20199;-69
2021/06/07 06:17:49;;;;;;;8.07;4.70;;;;;;;26.07;46.67;101590.19;5008614;28;20203;-69
2021/06/07 06:20:18;;;;;;;6.72;5.38;;;;;;;26.37;46.66;101595.81;5009488;28;20595;-69
2021/06/07 06:22:46;;;;;;;11.30;6.43;;;;;;;26.67;47.06;101592.06;5008686;28;20492;-69
2021/06/07 06:25:16;;;;;;;8.07;6.15;;;;;;;26.89;46.78;101595.78;5006812;28;20681;-69
2021/06/07 06:27:44;;;;;;;14.70;6.70;;;;;;;26.72;46.57;101589.59;5008664;28;20239;-68
2021/06/07 06:30:16;;;;;;;8.55;5.75;;;;;;;26.81;46.35;101582.94;5007908;28;20591;-69
2021/06/07 06:32:47;;;;;;;8.20;6.80;;;;;;;27.05;46.43;101594.78;5008933;28;20199;-69
2021/06/07 06:35:15;;;;;;;7.82;5.78;;;;;;;27.15;46.25;101590.66;5008600;28;20202;-69
2021/06/07 06:37:44;;;;;;;7.28;5.40;;;;;;;27.52;44.71;101595.16;5009672;28;20200;-69
2021/06/07 06:40:16;;;;;;;8.98;5.10;;;;;;;27.60;45.01;101577.63;5013165;28;20408;-70
2021/06/07 06:42:44;;;;;;;7.85;5.40;;;;;;;27.76;45.05;101593.13;5009231;28;20206;-71
2021/06/07 06:45:13;;;;;;;6.68;5.85;;;;;;;27.96;44.33;101605.25;5008153;28;20203;-71
2021/06/07 06:47:41;;;;;;;5.53;4.85;;;;;;;28.39;43.44;101599.72;5010385;28;20191;-71
2021/06/07 06:50:11;;;;;;;7.15;5.10;;;;;;;28.63;43.91;101607.56;5015578;28;20709;-69
2021/06/07 06:52:39;;;;;;;7.47;4.93;;;;;;;28.93;42.10;101612.91;5007665;28;20199;-70
2021/06/07 06:55:08;;;;;;;7.88;5.10;;;;;;;29.01;42.41;101604.44;5010425;28;20973;-69
2021/06/07 06:57:36;;;;;;;9.43;5.03;;;;;;;29.17;41.58;101601.34;5000152;28;20547;-69
2021/06/07 07:00:05;;;;;;;5.30;4.57;;;;;;;29.49;41.40;101607.25;5007965;28;20203;-70
2021/06/07 07:02:33;;;;;;;5.95;5.20;;;;;;;29.77;40.31;101598.81;5008052;28;20211;-70
2021/06/07 07:05:01;;;;;;;6.25;4.80;;;;;;;30.04;39.51;101610.84;5007684;28;20575;-70
2021/06/07 07:07:30;;;;;;;7.00;5.20;;;;;;;30.07;39.97;101610.44;5006878;28;20214;-70
2021/06/07 07:09:58;;;;;;;8.23;5.38;;;;;;;29.93;40.71;101607.56;5009258;28;20215;-70
2021/06/07 07:12:26;;;;;;;5.88;4.63;;;;;;;30.26;39.28;101613.19;5007787;28;20208;-69
2021/06/07 07:14:55;;;;;;;8.43;5.07;;;;;;;30.42;39.08;101611.94;5008662;28;20195;-69
2021/06/07 07:17:22;;;;;;;7.18;4.35;;;;;;;30.59;38.90;101613.19;5004414;28;20578;-69
2021/06/07 07:19:51;;;;;;;5.95;4.60;;;;;;;30.83;37.37;101613.63;4997357;28;20208;-69
2021/06/07 07:22:19;;;;;;;7.05;5.13;;;;;;;31.05;36.55;101603.13;5008919;28;20658;-69
2021/06/07 07:24:49;;;;;;;5.80;5.03;;;;;;;31.09;37.47;101608.00;5007459;28;20206;-69
2021/06/07 07:27:19;;;;;;;6.72;4.47;;;;;;;31.20;36.94;101609.28;5008355;28;20235;-70
2021/06/07 07:29:47;;;;;;;6.55;4.30;;;;;;;31.44;35.86;101613.25;5007577;28;20637;-70
2021/06/07 07:32:16;;;;;;;7.65;5.35;;;;;;;31.08;37.93;101614.63;5008505;28;20591;-70
2021/06/07 07:34:47;;;;;;;8.48;4.70;;;;;;;30.95;38.07;101613.84;5006471;28;20204;-70
2021/06/07 07:37:15;;;;;;;6.93;5.28;;;;;;;31.32;37.14;101609.47;5008767;28;20206;-70
2021/06/07 07:39:43;;;;;;;7.82;4.82;;;;;;;31.63;35.64;101612.31;5008071;28;20203;-70
2021/06/07 07:42:12;;;;;;;9.90;4.78;;;;;;;31.34;36.92;101613.72;5011914;28;20209;-70
2021/06/07 07:44:40;;;;;;;7.03;5.35;;;;;;;31.23;36.96;101614.44;5013002;28;20206;-70
2021/06/07 07:47:08;;;;;;;6.05;4.70;;;;;;;30.99;37.94;101612.31;5004985;28;20203;-70
2021/06/07 07:49:36;;;;;;;5.63;4.97;;;;;;;31.16;37.27;101606.09;5006376;28;20230;-69
2021/06/07 07:52:08;;;;;;;7.80;4.70;;;;;;;31.19;37.11;101608.44;5013976;28;20200;-70
2021/06/07 07:54:36;;;;;;;5.10;4.57;;;;;;;31.33;36.14;101584.25;5007152;28;20283;-70
2021/06/07 07:57:05;;;;;;;8.15;4.82;;;;;;;31.52;36.66;101607.44;5007305;28;20199;-70
2021/06/07 07:59:34;;;;;;;5.90;4.53;;;;;;;31.65;36.38;101601.84;5008056;28;20211;-70
2021/06/07 08:02:02;;;;;;;7.30;4.40;;;;;;;31.80;36.11;101607.97;5005568;28;20195;-70
2021/06/07 08:04:30;;;;;;;5.60;3.92;;;;;;;32.00;34.96;101612.53;5007982;28;20195;-70
2021/06/07 08:06:58;;;;;;;4.63;4.00;;;;;;;32.08;35.54;101609.50;5007332;28;20246;-70
2021/06/07 08:09:26;;;;;;;4.68;4.10;;;;;;;32.41;34.37;101612.88;5006977;28;20246;-70
2021/06/07 08:11:53;;;;;;;4.43;4.03;;;;;;;32.22;34.40;101607.47;5007547;28;20199;-70
2021/06/07 08:14:21;;;;;;;4.90;3.95;;;;;;;32.19;34.12;101611.56;5006154;28;20231;-70
2021/06/07 08:16:50;;;;;;;3.95;3.55;;;;;;;32.01;34.44;101592.00;5007737;28;20662;-70
2021/06/07 08:19:18;;;;;;;4.00;3.60;;;;;;;31.93;33.83;101578.41;5000332;28;20659;-70
2021/06/07 08:21:46;;;;;;;5.70;3.75;;;;;;;32.18;33.93;101607.09;5007095;28;20301;-70
2021/06/07 08:24:13;;;;;;;6.88;3.92;;;;;;;32.32;34.10;101603.13;5006190;28;20258;-69
2021/06/07 08:26:41;;;;;;;4.40;3.38;;;;;;;32.46;34.10;101605.81;5007122;28;20230;-69
2021/06/07 08:29:09;;;;;;;6.63;3.40;;;;;;;32.45;34.15;101593.84;5005693;28;20277;-69
2021/06/07 08:31:38;;;;;;;6.20;3.30;;;;;;;32.08;34.45;101593.66;5007281;28;20199;-70
2021/06/07 08:34:07;;;;;;;6.53;3.70;;;;;;;32.12;33.95;101599.63;5007349;28;20274;-70
2021/06/07 08:36:34;;;;;;;3.75;3.30;;;;;;;32.42;33.61;101602.63;5006621;28;20199;-70
2021/06/07 08:39:04;;;;;;;6.65;3.20;;;;;;;31.98;34.08;101598.03;4996997;28;20207;-70
2021/06/07 08:41:32;;;;;;;4.57;3.70;;;;;;;32.04;34.16;101588.78;5005134;28;20538;-70
2021/06/07 08:44:20;;;;;;;5.68;3.42;;;;;;;31.79;34.43;101589.56;4999900;28;20221;-70
2021/06/07 08:46:47;;;;;;;3.80;3.20;;;;;;;31.59;35.65;101588.84;5006387;28;20188;-69
2021/06/07 08:49:16;;;;;;;3.88;3.47;;;;;;;32.12;33.95;101594.06;5007017;28;20277;-70
2021/06/07 08:51:44;;;;;;;3.33;3.03;;;;;;;32.34;33.45;101597.34;5007936;28;20619;-70
2021/06/07 08:54:12;;;;;;;3.58;3.28;;;;;;;32.38;34.29;101599.44;5006587;28;20203;-70
2021/06/07 08:56:40;;;;;;;5.43;3.25;;;;;;;32.54;33.47;101594.41;5008042;28;20199;-70
2021/06/07 08:59:08;;;;;;;14.13;3.60;;;;;;;32.60;33.13;101594.31;4999602;28;20202;-70
2021/06/07 09:01:38;;;;;;;4.18;3.17;;;;;;;32.76;33.24;101594.81;5007250;28;20745;-70
2021/06/07 09:04:10;;;;;;;3.15;2.85;;;;;;;32.73;32.75;101591.41;5005776;28;20611;-70
2021/06/07 09:06:43;;;;;;;3.28;2.97;;;;;;;32.85;32.37;101583.19;5008293;28;20690;-70
2021/06/07 09:09:12;;;;;;;4.45;3.22;;;;;;;32.70;32.74;101591.84;5005750;28;20199;-70
2021/06/07 09:11:45;;;;;;;3.55;3.25;;;;;;;32.50;33.02;101593.16;4997580;28;20207;-70
2021/06/07 09:14:18;;;;;;;4.30;3.05;;;;;;;32.20;34.23;101599.38;4989367;28;20203;-70
2021/06/07 09:16:45;;;;;;;6.15;2.97;;;;;;;32.33;33.70;101590.94;4997643;28;20199;-70
2021/06/07 09:19:22;;;;;;;3.45;3.15;;;;;;;32.41;33.76;101587.84;5001942;28;20207;-71
2021/06/07 09:21:54;;;;;;;5.22;2.90;;;;;;;32.21;33.68;101600.22;5007003;28;20204;-70
2021/06/07 09:24:22;;;;;;;5.13;3.20;;;;;;;32.31;33.72;101593.09;5007209;28;20674;-71
2021/06/07 09:26:51;;;;;;;3.50;3.20;;;;;;;32.55;33.37;101590.53;5000476;28;20600;-71
2021/06/07 09:29:42;;;;;;;3.15;2.95;;;;;;;32.64;33.61;101586.38;5009451;28;20573;-71
2021/06/07 09:32:19;;;;;;;3.00;2.80;;;;;;;32.98;33.43;101582.19;4995901;28;20298;-68
2021/06/07 09:35:03;;;;;;;4.40;3.30;;;;;;;33.21;33.15;101582.34;5010310;28;20743;-71
2021/06/07 09:37:32;;;;;;;3.30;3.00;;;;;;;33.31;32.94;101576.22;5013658;28;20597;-69
2021/06/07 09:40:17;;;;;;;3.20;2.90;;;;;;;33.18;31.84;101582.81;5009761;28;20187;-70
2021/06/07 09:43:04;;;;;;;4.63;2.78;;;;;;;33.21;32.07;101582.34;5015912;28;20195;-70
2021/06/07 09:45:41;;;;;;;3.70;2.75;;;;;;;32.94;32.96;101576.22;5010462;28;20213;-70
2021/06/07 09:48:11;;;;;;;3.13;2.75;;;;;;;33.08;32.86;101585.28;5010210;28;20202;-70
2021/06/07 09:50:53;;;;;;;3.08;2.88;;;;;;;33.24;32.33;101581.88;5000193;28;20223;-70
2021/06/07 09:53:43;;;;;;;3.00;2.47;;;;;;;33.09;33.13;101586.16;5007914;28;20209;-70
2021/06/07 09:56:11;;;;;;;3.20;2.90;;;;;;;32.86;33.20;101584.88;4996807;28;20302;-70
2021/06/07 09:58:40;;;;;;;2.92;2.63;;;;;;;32.46;32.96;101580.78;5006775;28;20194;-70
2021/06/07 10:01:13;;;;;;;2.53;2.35;;;;;;;32.31;33.60;101586.69;5009671;28;20634;-70
2021/06/07 10:03:43;;;;;;;2.83;2.60;;;;;;;32.27;33.00;101577.94;5008731;28;20211;-69
2021/06/07 10:06:23;;;;;;;2.65;2.45;;;;;;;32.26;32.90;101583.72;5009575;28;20207;-70
2021/06/07 10:08:57;;;;;;;2.67;2.38;;;;;;;32.05;33.53;101583.00;5008945;28;20207;-70
2021/06/07 10:11:27;;;;;;;2.95;2.63;;;;;;;31.76;33.19;101581.69;5009430;28;20243;-69
2021/06/07 10:14:06;;;;;;;3.00;2.70;;;;;;;31.95;33.50;101581.78;5003259;28;20210;-70
2021/06/07 10:16:35;;;;;;;2.30;2.10;;;;;;;32.11;32.82;101578.44;5010143;28;20285;-70
2021/06/07 10:19:06;;;;;;;4.40;2.20;;;;;;;32.12;32.06;101582.94;5007773;28;20203;-70
2021/06/07 10:21:34;;;;;;;4.18;2.30;;;;;;;32.22;31.40;101582.44;5017289;28;20561;-70
2021/06/07 10:24:04;;;;;;;2.25;2.10;;;;;;;32.51;31.07;101572.59;5013895;28;20230;-70
2021/06/07 10:26:32;;;;;;;5.40;2.22;;;;;;;32.53;31.37;101579.63;5004088;28;20235;-70
2021/06/07 10:28:59;;;;;;;1.98;1.88;;;;;;;32.41;31.24;101564.75;5005012;28;20287;-70
2021/06/07 10:31:27;;;;;;;4.57;1.90;;;;;;;32.40;31.42;101575.03;5008775;28;20222;-70
2021/06/07 10:33:57;;;;;;;2.95;2.10;;;;;;;31.94;30.95;101577.31;4997726;28;20192;-70
2021/06/07 10:36:37;;;;;;;3.17;2.40;;;;;;;32.36;31.97;101571.00;5005983;28;20549;-70
2021/06/07 10:39:25;;;;;;;2.35;2.15;;;;;;;32.28;29.74;101576.84;5006189;28;20214;-70
2021/06/07 10:42:24;;;;;;;2.22;2.08;;;;;;;32.73;31.18;101577.47;5004023;28;20200;-69
2021/06/07 10:44:55;;;;;;;3.20;2.10;;;;;;;32.81;30.45;101576.38;5009745;28;20662;-69
2021/06/07 10:47:24;;;;;;;2.00;1.90;;;;;;;32.61;30.29;101572.91;5008870;28;20227;-70
2021/06/07 10:49:57;;;;;;;2.30;2.10;;;;;;;32.43;29.84;101562.59;5004948;28;20199;-69
2021/06/07 10:52:27;;;;;;;3.00;2.00;;;;;;;32.60;29.94;101551.75;5009878;28;20223;-69
2021/06/07 10:54:58;;;;;;;3.35;2.30;;;;;;;32.66;30.89;101557.22;5008440;28;20199;-69
2021/06/07 10:57:32;;;;;;;3.25;2.17;;;;;;;32.94;30.56;101576.22;4999941;28;20274;-69
2021/06/07 11:00:01;;;;;;;2.40;2.20;;;;;;;33.01;30.24;101559.44;5005209;28;20200;-69
2021/06/07 11:02:34;;;;;;;3.70;2.30;;;;;;;33.32;30.67;101559.28;5006061;28;20203;-70
2021/06/07 11:05:07;;;;;;;2.25;2.15;;;;;;;33.24;30.70;101561.50;5003342;28;20199;-70
2021/06/07 11:07:36;;;;;;;2.38;2.20;;;;;;;33.50;30.66;101555.63;5007783;28;20210;-70
2021/06/07 11:10:23;;;;;;;2.40;2.20;;;;;;;33.37;31.19;101557.72;5008903;28;20252;-70
2021/06/07 11:12:53;;;;;;;2.60;2.40;;;;;;;33.50;30.29;101552.00;5006515;28;20246;-70
2021/06/07 11:15:23;;;;;;;2.40;2.20;;;;;;;32.74;31.26;101547.72;5007403;28;20207;-70
2021/06/07 11:17:52;;;;;;;4.25;2.10;;;;;;;32.80;31.49;101549.63;5008567;28;20214;-71
2021/06/07 11:20:34;;;;;;;2.72;2.50;;;;;;;32.24;31.66;101531.09;5004139;28;20230;-71
2021/06/07 11:23:07;;;;;;;2.85;2.47;;;;;;;32.34;32.17;101547.28;5006777;28;20205;-70
2021/06/07 11:25:58;;;;;;;2.75;2.55;;;;;;;32.33;32.85;101526.09;5004966;28;20678;-71
2021/06/07 11:28:32;;;;;;;3.10;2.67;;;;;;;32.51;31.94;101545.63;5000739;28;20215;-71
2021/06/07 11:31:00;;;;;;;2.30;2.10;;;;;;;32.61;31.39;101547.88;5005758;28;20238;-69
2021/06/07 11:33:28;;;;;;;2.60;2.40;;;;;;;32.82;31.90;101533.56;5009306;28;20670;-70
2021/06/07 11:35:57;;;;;;;2.42;2.30;;;;;;;32.55;31.44;101551.59;5007554;28;20726;-70
2021/06/07 11:38:35;;;;;;;2.50;2.30;;;;;;;32.59;31.44;101555.59;5017782;28;20203;-71